Time;durP1;ratioP1;P1;durP2;ratioP2;P2;SDS_P1;SDS_P2;PMS_P1;PMS_P2;Temp;Humidity;BMP_temperature;BMP_pressure;BME280_temperature;BME280_humidity;BME280_pressure;Samples;Min_cycle;Max_cycle;Signal;HPM_P1;HPM_P2
2023/10/03 00:00:27;;;;;;;48.95;16.92;;;15.90;99.90;;;;;;5027547;28;20506;-59
2023/10/03 00:02:56;;;;;;;;;;;15.90;99.90;;;;;;5031807;28;20036;-60
2023/10/03 00:05:22;;;;;;;43.92;17.05;;;16.00;99.90;;;;;;5022676;28;20019;-61
2023/10/03 00:07:50;;;;;;;45.28;18.55;;;16.00;99.90;;;;;;5028669;28;20029;-62
2023/10/03 00:10:15;;;;;;;42.25;17.33;;;16.10;99.90;;;;;;5017457;28;20554;-62
2023/10/03 00:12:42;;;;;;;49.13;17.52;;;16.10;99.90;;;;;;5017915;28;20060;-61
2023/10/03 00:15:08;;;;;;;44.97;18.30;;;16.10;99.90;;;;;;5035275;28;20029;-62
2023/10/03 00:17:34;;;;;;;45.50;16.83;;;16.10;99.90;;;;;;5023920;28;20056;-62
2023/10/03 00:20:04;;;;;;;45.28;17.00;;;16.10;99.90;;;;;;5033576;28;20514;-61
2023/10/03 00:22:30;;;;;;;40.45;16.70;;;16.10;99.90;;;;;;5022808;28;20068;-61
2023/10/03 00:24:55;;;;;;;45.63;17.23;;;16.10;99.90;;;;;;5029160;28;20034;-62
2023/10/03 00:27:21;;;;;;;46.00;18.05;;;16.10;99.90;;;;;;5021205;28;20022;-61
2023/10/03 00:29:47;;;;;;;46.17;17.33;;;16.10;99.90;;;;;;5037855;28;20029;-62
2023/10/03 00:32:12;;;;;;;48.05;18.02;;;16.10;99.90;;;;;;5017017;28;20043;-62
2023/10/03 00:34:41;;;;;;;41.63;17.58;;;16.20;99.90;;;;;;5035605;28;20032;-59
2023/10/03 00:37:06;;;;;;;45.22;17.48;;;16.20;99.90;;;;;;5020991;28;20106;-60
2023/10/03 00:39:33;;;;;;;48.60;18.02;;;16.20;99.90;;;;;;5023559;28;20563;-61
2023/10/03 00:42:01;;;;;;;45.92;17.23;;;16.20;99.90;;;;;;5019344;28;20061;-61
2023/10/03 00:44:28;;;;;;;52.63;19.38;;;16.20;99.90;;;;;;5031995;28;20033;-62
2023/10/03 00:46:54;;;;;;;53.10;18.70;;;16.30;99.90;;;;;;5024733;28;20049;-61
2023/10/03 00:49:19;;;;;;;45.38;17.55;;;16.30;99.90;;;;;;5023806;28;20119;-58
2023/10/03 00:51:46;;;;;;;45.53;18.02;;;16.30;99.90;;;;;;5026130;28;20087;-60
2023/10/03 00:54:12;;;;;;;48.65;17.25;;;16.30;99.90;;;;;;5024220;28;20427;-62
2023/10/03 00:56:37;;;;;;;50.35;19.05;;;16.30;99.90;;;;;;5018375;28;20414;-62
2023/10/03 00:59:03;;;;;;;44.45;16.85;;;16.40;99.90;;;;;;5031294;28;20033;-61
2023/10/03 01:01:33;;;;;;;47.25;16.55;;;16.30;99.90;;;;;;5019804;28;20022;-61
2023/10/03 01:04:01;;;;;;;55.05;18.98;;;16.40;99.90;;;;;;5033596;28;20029;-61
2023/10/03 01:06:27;;;;;;;44.00;17.73;;;16.40;99.90;;;;;;5031460;28;20101;-62
2023/10/03 01:08:54;;;;;;;50.38;18.05;;;16.40;99.90;;;;;;5016143;28;20030;-61
2023/10/03 01:11:24;;;;;;;47.90;17.77;;;16.40;99.90;;;;;;5020102;28;20026;-59
2023/10/03 01:13:58;;;;;;;43.03;16.05;;;16.50;99.90;;;;;;5022884;28;20025;-60
2023/10/03 01:16:43;;;;;;;44.97;17.25;;;16.50;99.90;;;;;;5015040;28;20021;-59
2023/10/03 01:19:20;;;;;;;48.08;16.80;;;16.50;99.90;;;;;;5022701;28;20025;-61
2023/10/03 01:21:46;;;;;;;42.47;16.50;;;16.50;99.90;;;;;;5027286;28;20091;-60
2023/10/03 01:24:14;;;;;;;52.45;17.38;;;16.50;99.90;;;;;;5023896;28;20057;-62
2023/10/03 01:26:40;;;;;;;45.17;17.25;;;16.50;99.90;;;;;;5026568;28;20089;-62
2023/10/03 01:29:05;;;;;;;44.80;16.08;;;16.50;99.90;;;;;;5019979;28;20109;-61
2023/10/03 01:31:31;;;;;;;43.30;15.73;;;16.50;99.90;;;;;;5023579;28;20076;-61
2023/10/03 01:33:57;;;;;;;47.15;17.45;;;16.60;99.90;;;;;;5027553;28;20061;-60
2023/10/03 01:36:22;;;;;;;44.65;17.38;;;16.50;99.90;;;;;;5034913;28;20072;-59
2023/10/03 01:38:48;;;;;;;46.60;17.17;;;16.60;99.90;;;;;;5024529;28;20448;-58
2023/10/03 01:41:13;;;;;;;41.20;16.80;;;16.70;99.90;;;;;;5030275;28;20024;-60
2023/10/03 01:43:43;;;;;;;47.25;18.15;;;16.70;99.90;;;;;;5027013;28;20037;-60
2023/10/03 01:46:17;;;;;;;50.42;17.15;;;16.80;99.90;;;;;;5027041;28;20123;-61
2023/10/03 01:48:43;;;;;;;43.55;16.83;;;16.80;99.90;;;;;;5027950;28;20043;-60
2023/10/03 01:51:09;;;;;;;42.72;16.83;;;16.90;99.90;;;;;;5031403;28;20480;-60
2023/10/03 01:53:36;;;;;;;44.10;16.88;;;16.90;99.90;;;;;;5016012;28;20030;-62
2023/10/03 01:56:03;;;;;;;44.20;17.15;;;16.80;99.90;;;;;;5027451;28;20021;-61
2023/10/03 01:58:30;;;;;;;40.90;16.33;;;16.90;99.90;;;;;;5024751;28;20030;-60
2023/10/03 02:00:55;;;;;;;44.13;16.40;;;16.90;99.90;;;;;;5025317;28;20427;-61
2023/10/03 02:03:22;;;;;;;43.10;16.65;;;17.00;99.90;;;;;;5020318;28;20025;-61
2023/10/03 02:05:48;;;;;;;46.45;17.65;;;17.00;99.90;;;;;;5024591;28;20076;-61
2023/10/03 02:08:16;;;;;;;46.15;16.75;;;16.90;99.90;;;;;;5034140;28;20100;-60
2023/10/03 02:10:45;;;;;;;45.70;17.70;;;17.00;99.90;;;;;;5032088;28;20511;-60
2023/10/03 02:13:14;;;;;;;38.50;16.30;;;16.90;99.90;;;;;;5025509;28;20083;-61
2023/10/03 02:15:49;;;;;;;40.33;16.77;;;16.90;99.90;;;;;;5030159;28;20040;-57
2023/10/03 02:18:18;;;;;;;39.17;14.82;;;16.90;99.90;;;;;;5025883;28;20025;-61
2023/10/03 02:21:04;;;;;;;40.08;16.38;;;16.90;99.90;;;;;;5026841;28;20439;-62
2023/10/03 02:23:32;;;;;;;43.50;16.58;;;16.90;99.90;;;;;;5035025;28;20030;-61
2023/10/03 02:26:07;;;;;;;42.67;16.35;;;16.90;99.90;;;;;;5024599;28;20046;-60
2023/10/03 02:28:32;;;;;;;43.90;16.58;;;16.90;99.90;;;;;;5029936;28;20053;-61
2023/10/03 02:31:00;;;;;;;40.33;15.98;;;16.90;99.90;;;;;;5016256;28;20049;-58
2023/10/03 02:33:28;;;;;;;51.03;17.63;;;16.90;99.90;;;;;;5034496;28;20034;-60
2023/10/03 02:35:54;;;;;;;41.38;16.27;;;16.80;99.90;;;;;;5020345;28;20018;-61
2023/10/03 02:38:24;;;;;;;48.60;18.75;;;16.90;99.90;;;;;;5021846;28;20437;-62
2023/10/03 02:41:00;;;;;;;49.10;16.25;;;16.90;99.90;;;;;;5024455;28;20043;-62
2023/10/03 02:43:30;;;;;;;43.05;15.50;;;16.90;99.90;;;;;;5035024;28;20014;-60
2023/10/03 02:45:56;;;;;;;44.70;17.05;;;16.90;99.90;;;;;;5025810;28;20032;-60
2023/10/03 02:48:22;;;;;;;49.25;17.17;;;16.90;99.90;;;;;;5033733;28;20030;-62
2023/10/03 02:50:50;;;;;;;43.10;17.23;;;17.00;99.90;;;;;;5036180;28;20025;-62
2023/10/03 02:53:22;;;;;;;38.45;14.82;;;17.00;99.90;;;;;;5024841;28;20037;-61
2023/10/03 02:55:51;;;;;;;45.80;17.30;;;17.10;99.90;;;;;;5035145;28;20150;-62
2023/10/03 02:58:19;;;;;;;42.15;15.95;;;17.10;99.90;;;;;;5029273;28;20108;-61
2023/10/03 03:00:49;;;;;;;40.55;17.45;;;17.10;99.90;;;;;;5036976;28;20056;-60
2023/10/03 03:03:15;;;;;;;46.45;16.98;;;17.10;99.90;;;;;;5027141;28;20381;-61
2023/10/03 03:05:42;;;;;;;45.25;16.42;;;17.10;99.90;;;;;;5023487;28;20037;-61
2023/10/03 03:10:51;;;;;;;44.33;15.63;;;17.10;99.90;;;;;;5031042;28;20558;-62
2023/10/03 03:13:18;;;;;;;45.10;16.08;;;17.00;99.90;;;;;;5025736;28;20025;-61
2023/10/03 03:15:51;;;;;;;42.65;16.33;;;17.00;99.90;;;;;;5042211;28;20543;-62
2023/10/03 03:18:19;;;;;;;46.65;17.83;;;16.90;99.90;;;;;;5024249;28;20036;-62
2023/10/03 03:20:50;;;;;;;44.88;16.25;;;16.90;99.90;;;;;;5033629;28;20207;-60
2023/10/03 03:23:16;;;;;;;42.90;16.25;;;16.90;99.90;;;;;;5018033;28;20560;-62
2023/10/03 03:25:42;;;;;;;45.72;17.15;;;16.90;99.90;;;;;;5022925;28;20442;-62
2023/10/03 03:28:15;;;;;;;42.80;16.48;;;16.90;99.90;;;;;;5028953;28;20017;-61
2023/10/03 03:30:54;;;;;;;41.78;16.38;;;16.90;99.90;;;;;;5031093;28;20092;-62
2023/10/03 03:33:20;;;;;;;48.30;16.00;;;16.90;99.90;;;;;;5022434;28;20026;-60
2023/10/03 03:35:49;;;;;;;36.08;14.82;;;17.00;99.90;;;;;;5034950;28;20075;-61
2023/10/03 03:38:15;;;;;;;40.03;16.42;;;17.00;99.90;;;;;;5017633;28;20104;-61
2023/10/03 03:40:46;;;;;;;42.20;15.07;;;17.00;99.90;;;;;;5025444;28;20548;-58
2023/10/03 03:43:16;;;;;;;42.90;16.33;;;17.00;99.90;;;;;;5039786;28;20024;-60
2023/10/03 03:45:45;;;;;;;47.30;16.58;;;17.00;99.90;;;;;;5027961;28;20394;-60
2023/10/03 03:48:11;;;;;;;42.40;17.30;;;17.00;99.90;;;;;;5026482;28;20031;-62
2023/10/03 03:50:38;;;;;;;51.08;16.35;;;17.10;99.90;;;;;;5026710;28;20083;-62
2023/10/03 03:53:04;;;;;;;44.72;16.35;;;17.00;99.90;;;;;;5017924;28;20030;-61
2023/10/03 03:55:30;;;;;;;41.08;15.30;;;17.00;99.90;;;;;;5023705;28;20083;-60
2023/10/03 03:57:57;;;;;;;36.45;15.00;;;17.10;99.90;;;;;;5033458;28;20071;-60
2023/10/03 04:00:28;;;;;;;43.42;16.20;;;17.10;99.90;;;;;;5019910;28;20068;-58
2023/10/03 04:03:05;;;;;;;39.15;15.30;;;17.10;99.90;;;;;;5028713;28;20078;-62
2023/10/03 04:05:32;;;;;;;39.83;15.07;;;17.10;99.90;;;;;;5020635;28;20536;-60
2023/10/03 04:07:59;;;;;;;37.08;15.48;;;17.10;99.90;;;;;;5027849;28;20651;-61
2023/10/03 04:10:26;;;;;;;38.40;15.80;;;17.10;99.90;;;;;;5022041;28;20059;-60
2023/10/03 04:12:52;;;;;;;37.40;15.60;;;17.10;99.90;;;;;;5033335;28;20036;-62
2023/10/03 04:15:20;;;;;;;38.47;15.30;;;17.10;99.90;;;;;;5022904;28;20095;-60
2023/10/03 04:17:48;;;;;;;36.55;15.40;;;17.10;99.90;;;;;;5033096;28;20026;-61
2023/10/03 04:20:30;;;;;;;38.25;15.48;;;17.10;99.90;;;;;;5028390;28;20078;-61
2023/10/03 04:23:00;;;;;;;41.78;14.75;;;17.10;99.90;;;;;;5021925;28;20025;-61
2023/10/03 04:25:26;;;;;;;39.08;15.50;;;17.10;99.90;;;;;;5020519;28;20495;-62
2023/10/03 04:27:54;;;;;;;42.28;15.95;;;17.00;99.90;;;;;;5026382;28;20886;-62
2023/10/03 04:30:21;;;;;;;37.20;14.20;;;17.00;99.90;;;;;;5025033;28;20040;-61
2023/10/03 04:32:47;;;;;;;37.47;14.48;;;17.10;99.90;;;;;;5023199;28;20060;-62
2023/10/03 04:35:14;;;;;;;37.78;15.05;;;17.10;99.90;;;;;;5024116;28;20434;-62
2023/10/03 04:37:43;;;;;;;37.60;14.13;;;17.00;99.90;;;;;;5021444;28;20026;-62
2023/10/03 04:40:11;;;;;;;37.65;14.80;;;17.00;99.90;;;;;;5019093;28;20032;-61
2023/10/03 04:42:41;;;;;;;42.10;15.70;;;17.00;99.90;;;;;;5026125;28;20025;-60
2023/10/03 04:45:10;;;;;;;50.42;16.17;;;17.00;99.90;;;;;;5027304;28;20029;-60
2023/10/03 04:47:37;;;;;;;41.65;15.85;;;17.00;99.90;;;;;;5023172;28;20057;-61
2023/10/03 04:50:03;;;;;;;35.55;14.32;;;17.00;99.90;;;;;;5026332;28;20021;-61
2023/10/03 04:52:28;;;;;;;32.05;13.15;;;17.00;99.90;;;;;;5023688;28;20029;-57
2023/10/03 04:54:54;;;;;;;39.05;14.70;;;17.00;99.90;;;;;;5026254;28;20028;-61
2023/10/03 04:57:19;;;;;;;40.83;15.13;;;17.10;99.90;;;;;;5021318;28;20030;-55
2023/10/03 04:59:45;;;;;;;36.85;13.82;;;17.00;99.90;;;;;;5036770;28;20393;-57
2023/10/03 05:02:11;;;;;;;35.28;14.75;;;17.00;99.90;;;;;;5029381;28;20048;-61
2023/10/03 05:04:36;;;;;;;43.97;15.13;;;17.00;99.90;;;;;;5037337;28;20044;-61
2023/10/03 05:07:02;;;;;;;42.22;15.68;;;17.00;99.90;;;;;;5025341;28;20502;-62
2023/10/03 05:09:30;;;;;;;35.13;13.60;;;17.00;99.90;;;;;;5032920;28;20034;-62
2023/10/03 05:11:56;;;;;;;35.08;14.18;;;17.00;99.90;;;;;;5031344;28;20384;-61
2023/10/03 05:14:21;;;;;;;44.05;15.38;;;16.90;99.90;;;;;;5033995;28;20044;-62
2023/10/03 05:16:50;;;;;;;39.42;14.15;;;17.00;99.90;;;;;;5028630;28;20034;-62
2023/10/03 05:19:17;;;;;;;34.47;14.00;;;16.90;99.90;;;;;;5039083;28;20021;-61
2023/10/03 05:21:47;;;;;;;35.78;13.82;;;17.00;99.90;;;;;;5020506;28;20037;-62
2023/10/03 05:24:14;;;;;;;41.45;14.77;;;17.00;99.90;;;;;;5024186;28;20049;-62
2023/10/03 05:26:41;;;;;;;37.30;14.40;;;17.00;99.90;;;;;;5027147;28;20496;-62
2023/10/03 05:29:07;;;;;;;40.08;14.05;;;16.90;99.90;;;;;;5035562;28;20029;-59
2023/10/03 05:31:34;;;;;;;44.35;14.25;;;17.00;99.90;;;;;;5033186;28;20021;-61
2023/10/03 05:34:00;;;;;;;39.03;14.00;;;17.00;99.90;;;;;;5030016;28;20562;-61
2023/10/03 05:36:25;;;;;;;35.47;12.68;;;16.90;99.90;;;;;;5022384;28;20100;-60
2023/10/03 05:38:51;;;;;;;34.45;13.82;;;16.90;99.90;;;;;;5023434;28;20029;-59
2023/10/03 05:41:21;;;;;;;32.53;12.30;;;16.90;99.90;;;;;;5022240;28;20045;-60
2023/10/03 05:43:47;;;;;;;35.50;13.43;;;17.00;99.90;;;;;;5029029;28;20113;-58
2023/10/03 05:46:12;;;;;;;38.53;13.35;;;16.90;99.90;;;;;;5030990;28;20120;-62
2023/10/03 05:48:38;;;;;;;32.78;13.48;;;17.00;99.90;;;;;;5029644;28;20029;-60
2023/10/03 05:51:05;;;;;;;38.75;14.55;;;16.90;99.90;;;;;;5027773;28;20156;-61
2023/10/03 05:53:34;;;;;;;33.67;13.43;;;16.90;99.90;;;;;;5022103;28;20036;-60
2023/10/03 05:56:00;;;;;;;31.05;12.95;;;16.90;99.90;;;;;;5024637;28;20033;-61
2023/10/03 05:58:27;;;;;;;36.97;14.30;;;16.90;99.90;;;;;;5029731;28;20017;-61
2023/10/03 06:00:52;;;;;;;35.78;13.57;;;16.80;99.90;;;;;;5024372;28;20025;-61
2023/10/03 06:03:18;;;;;;;29.95;11.30;;;16.90;99.90;;;;;;5024294;28;20392;-60
2023/10/03 06:05:44;;;;;;;35.13;13.35;;;16.90;99.90;;;;;;5037395;28;20055;-60
2023/10/03 06:08:12;;;;;;;33.00;13.50;;;16.90;99.90;;;;;;5028130;28;20033;-61
2023/10/03 06:10:42;;;;;;;33.97;13.30;;;17.00;99.90;;;;;;5027097;28;20541;-60
2023/10/03 06:13:10;;;;;;;30.17;12.57;;;17.00;99.90;;;;;;5021678;28;20045;-60
2023/10/03 06:15:36;;;;;;;34.28;12.35;;;17.00;99.90;;;;;;5026252;28;20083;-59
2023/10/03 06:18:02;;;;;;;34.22;13.75;;;17.10;99.90;;;;;;5027829;28;20029;-61
2023/10/03 06:20:27;;;;;;;28.13;10.82;;;17.30;99.90;;;;;;5027272;28;20030;-61
2023/10/03 06:22:54;;;;;;;25.83;11.55;;;17.70;99.90;;;;;;5020688;28;20129;-61
2023/10/03 06:25:19;;;;;;;33.75;12.48;;;17.80;99.90;;;;;;5022688;28;20128;-62
2023/10/03 06:27:45;;;;;;;30.10;10.38;;;18.10;99.90;;;;;;5023987;28;20487;-61
2023/10/03 06:30:11;;;;;;;28.02;10.63;;;18.50;99.90;;;;;;5037281;28;20021;-60
2023/10/03 06:32:37;;;;;;;26.55;10.70;;;18.70;99.90;;;;;;5022013;28;20033;-62
2023/10/03 06:35:05;;;;;;;24.25;9.68;;;19.20;99.90;;;;;;5015126;28;20036;-62
2023/10/03 06:37:31;;;;;;;26.27;10.10;;;19.30;99.90;;;;;;5021698;28;20026;-60
2023/10/03 06:39:57;;;;;;;24.70;10.55;;;19.40;99.90;;;;;;5029541;28;20099;-62
2023/10/03 06:42:23;;;;;;;23.23;9.60;;;19.40;99.90;;;;;;5024317;28;20060;-60
2023/10/03 06:44:49;;;;;;;27.27;9.90;;;19.70;99.90;;;;;;5030508;28;20495;-61
2023/10/03 06:47:15;;;;;;;25.75;9.30;;;19.90;99.90;;;;;;5024155;28;20036;-59
2023/10/03 06:49:40;;;;;;;21.33;9.35;;;19.90;99.90;;;;;;5030584;28;20035;-62
2023/10/03 06:52:06;;;;;;;25.13;9.98;;;20.00;99.90;;;;;;5027971;28;20690;-62
2023/10/03 06:54:31;;;;;;;21.52;8.30;;;20.20;99.90;;;;;;5021127;28;20018;-61
2023/10/03 06:56:57;;;;;;;23.25;9.10;;;20.30;99.90;;;;;;5028662;28;20044;-61
2023/10/03 06:59:22;;;;;;;31.65;10.07;;;20.30;99.90;;;;;;5029375;28;20974;-61
2023/10/03 07:01:48;;;;;;;22.00;8.30;;;20.40;99.90;;;;;;5027300;28;20029;-62
2023/10/03 07:04:14;;;;;;;19.75;8.13;;;20.40;99.90;;;;;;5021029;28;20026;-61
2023/10/03 07:06:39;;;;;;;24.35;8.95;;;20.40;99.90;;;;;;5019854;28;20116;-61
2023/10/03 07:09:08;;;;;;;19.92;8.05;;;20.60;99.90;;;;;;5031087;28;20029;-62
2023/10/03 07:11:34;;;;;;;22.27;8.32;;;20.50;99.90;;;;;;5025928;28;20403;-61
2023/10/03 07:14:00;;;;;;;28.65;9.13;;;20.50;99.90;;;;;;5026410;28;20045;-62
2023/10/03 07:16:25;;;;;;;21.40;8.77;;;20.60;99.90;;;;;;5023894;28;20034;-62
2023/10/03 07:18:51;;;;;;;24.65;8.18;;;20.50;99.90;;;;;;5020805;28;20033;-62
2023/10/03 07:21:16;;;;;;;20.02;8.52;;;20.60;99.90;;;;;;5016771;28;20029;-61
2023/10/03 07:23:43;;;;;;;25.40;8.80;;;20.60;99.90;;;;;;5014945;28;20053;-61
2023/10/03 07:26:08;;;;;;;25.77;9.38;;;20.60;99.90;;;;;;5018481;28;20034;-62
2023/10/03 07:28:38;;;;;;;21.65;8.20;;;20.60;99.90;;;;;;5027715;28;20040;-62
2023/10/03 07:31:05;;;;;;;21.52;8.25;;;20.60;99.90;;;;;;5031267;28;20116;-62
2023/10/03 07:33:31;;;;;;;20.02;8.35;;;20.50;99.90;;;;;;5018459;28;20094;-61
2023/10/03 07:36:02;;;;;;;19.02;7.85;;;20.50;99.90;;;;;;5026704;28;20053;-62
2023/10/03 07:38:28;;;;;;;17.48;7.03;;;20.40;99.90;;;;;;5014534;28;20108;-60
2023/10/03 07:40:54;;;;;;;15.85;6.63;;;20.40;99.90;;;;;;5022202;28;20026;-62
2023/10/03 07:43:19;;;;;;;14.90;6.45;;;20.30;99.90;;;;;;5019090;28;20049;-59
2023/10/03 07:45:45;;;;;;;14.93;6.72;;;20.30;99.90;;;;;;5030258;28;20392;-61
2023/10/03 07:48:11;;;;;;;17.08;6.78;;;20.30;99.90;;;;;;5028865;28;20139;-61
2023/10/03 07:50:37;;;;;;;16.77;6.78;;;20.20;99.90;;;;;;5022677;28;20036;-62
2023/10/03 07:53:11;;;;;;;14.63;7.07;;;20.20;99.90;;;;;;5022285;28;20033;-59
2023/10/03 07:55:36;;;;;;;19.80;7.07;;;20.10;99.90;;;;;;5026964;28;20100;-61
2023/10/03 07:58:02;;;;;;;15.63;6.90;;;20.10;99.90;;;;;;5025304;28;20104;-60
2023/10/03 08:00:28;;;;;;;16.70;6.78;;;20.10;99.90;;;;;;5032332;28;20040;-61
2023/10/03 08:02:53;;;;;;;19.38;7.75;;;20.00;99.90;;;;;;5028783;28;20503;-61
2023/10/03 08:05:20;;;;;;;20.25;7.15;;;20.00;99.90;;;;;;5031742;28;20558;-61
2023/10/03 08:07:47;;;;;;;25.65;7.22;;;20.00;99.90;;;;;;5026123;28;20512;-59
2023/10/03 08:10:17;;;;;;;19.17;7.38;;;20.10;99.90;;;;;;5020784;28;20018;-61
2023/10/03 08:12:44;;;;;;;15.95;6.75;;;20.10;99.90;;;;;;5028919;28;20017;-60
2023/10/03 08:15:18;;;;;;;18.42;6.65;;;20.10;99.90;;;;;;5027335;28;20060;-62
2023/10/03 08:17:48;;;;;;;20.45;6.38;;;20.20;99.90;;;;;;5015734;28;20041;-61
2023/10/03 08:20:15;;;;;;;20.42;7.05;;;20.30;99.90;;;;;;5027936;28;20029;-60
2023/10/03 08:22:42;;;;;;;13.45;6.22;;;20.40;99.90;;;;;;5030872;28;20030;-61
2023/10/03 08:25:10;;;;;;;14.65;6.32;;;20.30;99.90;;;;;;5023030;28;20107;-62
2023/10/03 08:27:36;;;;;;;9.23;5.28;;;20.40;99.90;;;;;;5032037;28;20025;-61
2023/10/03 08:30:03;;;;;;;8.82;4.70;;;20.50;99.90;;;;;;5024475;28;20407;-62
2023/10/03 08:32:31;;;;;;;12.65;4.30;;;20.50;99.90;;;;;;5035192;28;20025;-62
2023/10/03 08:34:57;;;;;;;9.13;4.15;;;20.60;99.90;;;;;;5030167;28;20034;-60
2023/10/03 08:37:22;;;;;;;8.52;4.30;;;20.70;99.90;;;;;;5031051;28;20025;-60
2023/10/03 08:39:50;;;;;;;8.48;3.85;;;20.70;99.90;;;;;;5028678;28;20025;-59
2023/10/03 08:42:34;;;;;;;13.35;3.88;;;20.70;99.90;;;;;;5027895;28;20021;-57
2023/10/03 08:45:26;;;;;;;11.48;4.07;;;20.70;99.90;;;;;;5029451;28;20034;-60
2023/10/03 08:47:53;;;;;;;9.10;4.03;;;20.70;99.90;;;;;;5031808;28;20116;-61
2023/10/03 08:50:34;;;;;;;8.68;3.17;;;20.70;99.90;;;;;;5023867;28;20072;-59
2023/10/03 08:53:16;;;;;;;10.20;3.85;;;20.70;99.90;;;;;;5022799;28;20033;-61
2023/10/03 08:55:50;;;;;;;7.05;3.47;;;20.70;99.90;;;;;;5030390;28;20021;-61
2023/10/03 08:58:18;;;;;;;6.07;3.40;;;20.80;99.90;;;;;;5023737;28;20041;-59
2023/10/03 09:00:49;;;;;;;6.50;2.92;;;20.90;99.90;;;;;;5029904;28;20113;-60
2023/10/03 09:03:17;;;;;;;4.88;3.30;;;20.90;99.90;;;;;;5030770;28;20567;-61
2023/10/03 09:05:44;;;;;;;8.27;3.58;;;21.00;99.90;;;;;;5025418;28;20033;-62
2023/10/03 09:08:15;;;;;;;7.57;3.30;;;21.00;99.90;;;;;;5020473;28;20022;-58
2023/10/03 09:10:51;;;;;;;9.00;3.50;;;20.90;99.90;;;;;;5023673;28;20034;-61
2023/10/03 09:13:27;;;;;;;6.88;3.58;;;21.00;99.90;;;;;;5027371;28;20508;-62
2023/10/03 09:16:00;;;;;;;6.03;3.38;;;20.90;99.90;;;;;;5028786;28;20111;-61
2023/10/03 09:18:27;;;;;;;9.48;3.25;;;20.90;99.90;;;;;;5025285;28;20143;-58
2023/10/03 09:20:59;;;;;;;10.90;3.75;;;20.90;99.90;;;;;;5040804;28;20037;-57
2023/10/03 09:23:27;;;;;;;10.18;3.40;;;20.80;99.90;;;;;;5027539;28;20075;-59
2023/10/03 09:25:56;;;;;;;7.00;3.97;;;20.70;99.90;;;;;;5031060;28;20037;-59
2023/10/03 09:28:35;;;;;;;6.85;3.70;;;20.80;99.90;;;;;;5020900;28;20116;-61
2023/10/03 09:31:02;;;;;;;7.63;3.63;;;20.70;99.90;;;;;;5022673;28;20504;-62
2023/10/03 09:33:27;;;;;;;7.68;4.05;;;20.60;99.90;;;;;;5028315;28;20030;-62
2023/10/03 09:35:58;;;;;;;8.65;3.30;;;20.50;99.90;;;;;;5021093;28;20029;-61
2023/10/03 09:38:45;;;;;;;8.68;3.65;;;20.50;99.90;;;;;;5023421;28;20024;-59
2023/10/03 09:41:21;;;;;;;8.25;3.90;;;20.40;99.90;;;;;;5028011;28;20022;-61
2023/10/03 09:43:53;;;;;;;7.07;4.32;;;20.30;99.90;;;;;;5021227;28;20511;-59
2023/10/03 09:46:23;;;;;;;10.07;4.43;;;20.20;99.90;;;;;;5021854;28;20025;-61
2023/10/03 09:48:55;;;;;;;10.35;3.58;;;20.30;99.90;;;;;;5022783;28;20116;-62
2023/10/03 09:51:36;;;;;;;8.73;3.95;;;20.20;99.90;;;;;;5023536;28;20026;-61
2023/10/03 09:54:07;;;;;;;8.73;4.30;;;20.20;99.90;;;;;;5033779;28;20124;-62
2023/10/03 09:56:36;;;;;;;8.68;4.25;;;20.20;99.90;;;;;;5024439;28;20026;-62
2023/10/03 09:59:05;;;;;;;8.85;4.43;;;20.20;99.90;;;;;;5026124;28;20014;-62
2023/10/03 10:01:34;;;;;;;10.70;4.38;;;20.30;99.90;;;;;;5027207;28;20017;-59
2023/10/03 10:04:01;;;;;;;11.68;4.57;;;20.30;99.90;;;;;;5029293;28;20100;-58
2023/10/03 10:06:37;;;;;;;8.73;4.35;;;20.30;99.90;;;;;;5024704;28;20392;-61
2023/10/03 10:09:14;;;;;;;9.88;4.82;;;20.40;99.90;;;;;;5020124;28;20108;-61
2023/10/03 10:12:09;;;;;;;13.70;4.78;;;20.40;99.90;;;;;;5024353;28;20060;-61
2023/10/03 10:15:02;;;;;;;7.32;4.35;;;20.40;99.90;;;;;;5028285;28;20029;-60
2023/10/03 10:17:51;;;;;;;8.55;4.20;;;20.50;99.90;;;;;;5019633;28;20050;-60
2023/10/03 10:20:37;;;;;;;9.85;3.88;;;20.50;99.90;;;;;;5030989;28;20526;-60
2023/10/03 10:23:04;;;;;;;9.40;4.45;;;20.50;99.90;;;;;;5024408;28;20029;-60
2023/10/03 10:25:37;;;;;;;7.85;4.13;;;20.50;99.90;;;;;;5023572;28;20029;-60
2023/10/03 10:28:08;;;;;;;7.47;4.55;;;20.40;99.90;;;;;;5024509;28;20108;-61
2023/10/03 10:30:44;;;;;;;9.70;4.55;;;20.50;99.90;;;;;;5027344;28;20049;-60
2023/10/03 10:33:18;;;;;;;6.65;3.75;;;20.50;99.90;;;;;;5027234;28;20040;-59
2023/10/03 10:35:54;;;;;;;12.80;4.85;;;20.40;99.90;;;;;;5015917;28;20504;-59
2023/10/03 10:38:32;;;;;;;7.63;3.97;;;20.30;99.90;;;;;;5020083;28;20479;-61
2023/10/03 10:44:08;;;;;;;7.00;4.05;;;20.30;99.90;;;;;;5021563;28;20037;-61
2023/10/03 10:46:46;;;;;;;9.75;4.35;;;20.30;99.90;;;;;;5023745;28;20021;-65
2023/10/03 10:49:40;;;;;;;8.32;3.90;;;20.20;99.90;;;;;;5025984;28;20064;-62
2023/10/03 10:52:06;;;;;;;13.98;4.90;;;20.20;99.90;;;;;;5022710;28;20096;-60
2023/10/03 10:54:33;;;;;;;9.13;4.28;;;20.30;99.90;;;;;;5024830;28;20545;-60
2023/10/03 10:57:03;;;;;;;8.55;3.88;;;20.10;99.90;;;;;;5021225;28;20025;-60
2023/10/03 10:59:35;;;;;;;6.93;4.60;;;20.10;99.90;;;;;;5025558;28;20025;-59
2023/10/03 11:02:03;;;;;;;9.80;4.28;;;20.00;99.90;;;;;;5024778;28;20017;-61
2023/10/03 11:04:32;;;;;;;11.23;4.78;;;20.00;99.90;;;;;;5021528;28;20492;-60
2023/10/03 11:06:58;;;;;;;11.35;4.85;;;20.00;99.90;;;;;;5024695;28;20029;-62
2023/10/03 11:09:24;;;;;;;8.77;4.85;;;20.00;99.90;;;;;;5020507;28;20033;-60
2023/10/03 11:11:53;;;;;;;9.68;4.20;;;20.00;99.90;;;;;;5025030;28;20059;-59
2023/10/03 11:14:29;;;;;;;9.07;4.30;;;20.20;99.90;;;;;;5020363;28;20033;-60
2023/10/03 11:16:56;;;;;;;11.45;4.65;;;20.30;99.90;;;;;;5025186;28;20396;-60
2023/10/03 11:19:22;;;;;;;6.63;3.63;;;20.30;99.90;;;;;;5025413;28;20101;-61
2023/10/03 11:21:48;;;;;;;4.72;2.60;;;20.10;99.90;;;;;;5018140;28;20450;-61
2023/10/03 11:24:19;;;;;;;6.28;2.08;;;19.80;99.90;;;;;;5022009;28;20380;-61
2023/10/03 11:26:50;;;;;;;3.92;1.92;;;19.60;99.90;;;;;;5016801;28;20214;-61
2023/10/03 11:29:33;;;;;;;3.42;1.92;;;19.30;99.90;;;;;;5025642;28;20037;-60
2023/10/03 11:32:01;;;;;;;6.60;2.50;;;19.00;99.90;;;;;;5023982;28;20033;-59
2023/10/03 11:34:38;;;;;;;8.38;2.60;;;18.60;99.90;;;;;;5025412;28;20401;-60
2023/10/03 11:37:04;;;;;;;10.48;3.50;;;18.30;99.90;;;;;;5021962;28;20025;-62
2023/10/03 11:39:36;;;;;;;7.97;3.53;;;17.90;99.90;;;;;;5018074;28;20053;-63
2023/10/03 11:42:08;;;;;;;7.85;3.72;;;17.60;99.90;;;;;;5021653;28;20018;-62
2023/10/03 11:44:33;;;;;;;6.93;3.97;;;17.50;99.90;;;;;;5020833;28;20024;-63
2023/10/03 11:47:00;;;;;;;10.85;4.60;;;17.40;99.90;;;;;;5023443;28;20026;-62
2023/10/03 11:49:25;;;;;;;8.00;4.32;;;17.40;99.90;;;;;;5020644;28;20040;-63
2023/10/03 11:51:51;;;;;;;7.80;4.45;;;17.30;99.90;;;;;;5023613;28;20104;-61
2023/10/03 11:54:16;;;;;;;12.07;5.07;;;17.20;99.90;;;;;;5023028;28;20056;-62
2023/10/03 11:56:47;;;;;;;9.52;5.35;;;17.10;99.90;;;;;;5017059;28;20093;-62
2023/10/03 11:59:14;;;;;;;18.25;6.50;;;17.10;99.90;;;;;;5025868;28;20049;-62
2023/10/03 12:01:42;;;;;;;12.73;6.72;;;17.10;99.90;;;;;;5021157;28;20034;-60
2023/10/03 12:04:08;;;;;;;16.30;8.25;;;17.00;99.90;;;;;;5020119;28;20372;-61
2023/10/03 12:06:34;;;;;;;16.02;7.40;;;16.80;99.90;;;;;;5025013;28;20064;-61
2023/10/03 12:08:59;;;;;;;18.48;8.20;;;16.90;99.90;;;;;;5017343;28;20037;-63
2023/10/03 12:11:25;;;;;;;17.85;9.02;;;16.80;99.90;;;;;;5017197;28;20025;-62
2023/10/03 12:13:50;;;;;;;15.63;8.27;;;16.80;99.90;;;;;;5020432;28;20034;-62
2023/10/03 12:16:17;;;;;;;15.52;8.70;;;16.70;99.90;;;;;;5026518;28;20025;-61
2023/10/03 12:18:42;;;;;;;13.82;9.55;;;16.80;99.90;;;;;;5022248;28;20033;-62
2023/10/03 12:21:09;;;;;;;25.15;12.55;;;16.80;99.90;;;;;;5027445;28;20627;-63
2023/10/03 12:23:36;;;;;;;22.88;12.80;;;16.80;99.90;;;;;;5017215;28;20037;-63
2023/10/03 12:26:01;;;;;;;22.48;14.02;;;16.80;99.90;;;;;;5025454;28;20026;-63
2023/10/03 12:28:27;;;;;;;25.10;15.20;;;16.80;99.90;;;;;;5025986;28;20040;-63
2023/10/03 12:30:52;;;;;;;34.28;17.40;;;16.80;99.90;;;;;;5022658;28;20041;-63
2023/10/03 12:33:19;;;;;;;28.80;17.45;;;16.80;99.90;;;;;;5021458;28;20026;-62
2023/10/03 12:35:45;;;;;;;25.40;17.33;;;16.80;99.90;;;;;;5014578;28;20029;-63
2023/10/03 12:38:11;;;;;;;25.67;17.65;;;16.80;99.90;;;;;;5018610;28;20493;-63
2023/10/03 12:40:36;;;;;;;27.42;16.92;;;16.70;99.90;;;;;;5017706;28;20038;-63
2023/10/03 12:43:02;;;;;;;26.88;17.58;;;16.80;99.90;;;;;;5023151;28;20112;-62
2023/10/03 12:45:28;;;;;;;26.10;13.77;;;16.80;99.90;;;;;;5030006;28;20099;-61